sensor_id;sensor_type;location;lat;lon;timestamp;P1;durP1;ratioP1;P2;durP2;ratioP2
65599;SDS011;52272;-29.642;-50.764;2022-12-18T00:01:50;17.00;;;3.13;;
65599;SDS011;52272;-29.642;-50.764;2022-12-18T00:04:22;14.82;;;2.88;;
65599;SDS011;52272;-29.642;-50.764;2022-12-18T00:06:54;14.02;;;2.58;;
65599;SDS011;52272;-29.642;-50.764;2022-12-18T00:09:24;14.15;;;1.85;;
65599;SDS011;52272;-29.642;-50.764;2022-12-18T00:12:07;17.85;;;2.63;;
65599;SDS011;52272;-29.642;-50.764;2022-12-18T00:14:42;18.67;;;3.25;;
65599;SDS011;52272;-29.642;-50.764;2022-12-18T00:17:12;17.48;;;3.13;;
65599;SDS011;52272;-29.642;-50.764;2022-12-18T00:19:42;19.17;;;3.08;;
65599;SDS011;52272;-29.642;-50.764;2022-12-18T00:22:13;11.95;;;2.38;;
65599;SDS011;52272;-29.642;-50.764;2022-12-18T00:24:43;11.45;;;2.40;;
65599;SDS011;52272;-29.642;-50.764;2022-12-18T00:27:13;10.52;;;2.28;;
65599;SDS011;52272;-29.642;-50.764;2022-12-18T00:29:43;18.55;;;3.35;;
65599;SDS011;52272;-29.642;-50.764;2022-12-18T00:32:14;11.60;;;2.40;;
65599;SDS011;52272;-29.642;-50.764;2022-12-18T00:34:44;18.20;;;2.55;;
65599;SDS011;52272;-29.642;-50.764;2022-12-18T00:37:15;11.52;;;2.00;;
65599;SDS011;52272;-29.642;-50.764;2022-12-18T00:39:50;13.73;;;2.15;;
65599;SDS011;52272;-29.642;-50.764;2022-12-18T00:42:20;12.23;;;2.20;;
65599;SDS011;52272;-29.642;-50.764;2022-12-18T00:45:13;16.00;;;2.85;;
65599;SDS011;52272;-29.642;-50.764;2022-12-18T00:47:43;13.65;;;2.38;;
65599;SDS011;52272;-29.642;-50.764;2022-12-18T00:50:14;11.15;;;2.15;;
65599;SDS011;52272;-29.642;-50.764;2022-12-18T00:52:44;15.35;;;2.28;;
65599;SDS011;52272;-29.642;-50.764;2022-12-18T00:55:15;14.23;;;2.42;;
65599;SDS011;52272;-29.642;-50.764;2022-12-18T00:57:46;15.73;;;2.65;;
65599;SDS011;52272;-29.642;-50.764;2022-12-18T01:00:17;13.95;;;2.92;;
65599;SDS011;52272;-29.642;-50.764;2022-12-18T01:02:54;13.65;;;2.28;;
65599;SDS011;52272;-29.642;-50.764;2022-12-18T01:05:25;12.85;;;2.10;;
65599;SDS011;52272;-29.642;-50.764;2022-12-18T01:07:56;17.80;;;2.92;;
65599;SDS011;52272;-29.642;-50.764;2022-12-18T01:10:27;16.30;;;2.80;;
65599;SDS011;52272;-29.642;-50.764;2022-12-18T01:15:26;18.33;;;2.97;;
65599;SDS011;52272;-29.642;-50.764;2022-12-18T01:17:57;18.80;;;3.03;;
65599;SDS011;52272;-29.642;-50.764;2022-12-18T01:20:27;11.00;;;2.78;;
65599;SDS011;52272;-29.642;-50.764;2022-12-18T01:22:58;12.57;;;2.83;;
65599;SDS011;52272;-29.642;-50.764;2022-12-18T01:25:28;11.45;;;2.60;;
65599;SDS011;52272;-29.642;-50.764;2022-12-18T01:27:59;13.25;;;2.45;;
65599;SDS011;52272;-29.642;-50.764;2022-12-18T01:30:32;15.57;;;2.88;;
65599;SDS011;52272;-29.642;-50.764;2022-12-18T01:33:04;17.17;;;2.97;;
65599;SDS011;52272;-29.642;-50.764;2022-12-18T01:35:39;10.13;;;2.22;;
65599;SDS011;52272;-29.642;-50.764;2022-12-18T01:38:11;10.73;;;1.92;;
65599;SDS011;52272;-29.642;-50.764;2022-12-18T01:40:41;13.15;;;2.15;;
65599;SDS011;52272;-29.642;-50.764;2022-12-18T01:43:11;10.60;;;2.20;;
65599;SDS011;52272;-29.642;-50.764;2022-12-18T01:45:41;12.40;;;2.25;;
65599;SDS011;52272;-29.642;-50.764;2022-12-18T01:48:13;20.20;;;2.97;;
65599;SDS011;52272;-29.642;-50.764;2022-12-18T01:50:43;11.73;;;2.40;;
65599;SDS011;52272;-29.642;-50.764;2022-12-18T01:53:19;10.93;;;2.50;;
65599;SDS011;52272;-29.642;-50.764;2022-12-18T01:55:53;11.52;;;2.03;;
65599;SDS011;52272;-29.642;-50.764;2022-12-18T02:01:24;12.40;;;1.83;;
65599;SDS011;52272;-29.642;-50.764;2022-12-18T02:03:56;10.35;;;2.15;;
65599;SDS011;52272;-29.642;-50.764;2022-12-18T02:06:43;8.55;;;1.83;;
65599;SDS011;52272;-29.642;-50.764;2022-12-18T02:09:18;10.80;;;2.50;;
65599;SDS011;52272;-29.642;-50.764;2022-12-18T02:12:04;14.23;;;2.90;;
65599;SDS011;52272;-29.642;-50.764;2022-12-18T02:20:28;10.85;;;2.60;;
65599;SDS011;52272;-29.642;-50.764;2022-12-18T02:28:41;11.45;;;2.25;;
65599;SDS011;52272;-29.642;-50.764;2022-12-18T02:31:26;14.10;;;2.05;;
65599;SDS011;52272;-29.642;-50.764;2022-12-18T02:34:02;12.55;;;2.20;;
65599;SDS011;52272;-29.642;-50.764;2022-12-18T02:36:38;10.70;;;2.25;;
65599;SDS011;52272;-29.642;-50.764;2022-12-18T02:39:11;7.45;;;1.85;;
65599;SDS011;52272;-29.642;-50.764;2022-12-18T02:41:57;11.05;;;2.17;;
65599;SDS011;52272;-29.642;-50.764;2022-12-18T02:44:28;14.63;;;2.22;;
65599;SDS011;52272;-29.642;-50.764;2022-12-18T02:46:59;10.45;;;2.33;;
65599;SDS011;52272;-29.642;-50.764;2022-12-18T02:52:35;13.65;;;2.05;;
65599;SDS011;52272;-29.642;-50.764;2022-12-18T02:57:56;13.70;;;2.22;;
65599;SDS011;52272;-29.642;-50.764;2022-12-18T03:01:15;10.82;;;2.00;;
65599;SDS011;52272;-29.642;-50.764;2022-12-18T03:06:28;6.68;;;2.03;;
65599;SDS011;52272;-29.642;-50.764;2022-12-18T03:09:07;6.78;;;1.98;;
65599;SDS011;52272;-29.642;-50.764;2022-12-18T03:11:42;8.95;;;2.60;;
65599;SDS011;52272;-29.642;-50.764;2022-12-18T03:14:36;12.90;;;2.67;;
65599;SDS011;52272;-29.642;-50.764;2022-12-18T03:17:11;12.38;;;2.55;;
65599;SDS011;52272;-29.642;-50.764;2022-12-18T03:19:46;21.90;;;3.22;;
65599;SDS011;52272;-29.642;-50.764;2022-12-18T03:22:18;13.73;;;2.42;;
65599;SDS011;52272;-29.642;-50.764;2022-12-18T03:24:53;21.15;;;2.85;;
65599;SDS011;52272;-29.642;-50.764;2022-12-18T03:27:29;14.25;;;2.28;;
65599;SDS011;52272;-29.642;-50.764;2022-12-18T03:30:08;14.10;;;2.33;;
65599;SDS011;52272;-29.642;-50.764;2022-12-18T03:32:52;19.67;;;2.65;;
65599;SDS011;52272;-29.642;-50.764;2022-12-18T03:35:31;16.27;;;2.40;;
65599;SDS011;52272;-29.642;-50.764;2022-12-18T03:38:04;16.38;;;2.45;;
65599;SDS011;52272;-29.642;-50.764;2022-12-18T03:43:30;12.73;;;2.70;;
65599;SDS011;52272;-29.642;-50.764;2022-12-18T03:46:28;19.65;;;2.72;;
65599;SDS011;52272;-29.642;-50.764;2022-12-18T03:51:50;15.73;;;2.40;;
65599;SDS011;52272;-29.642;-50.764;2022-12-18T03:54:25;13.27;;;2.47;;
65599;SDS011;52272;-29.642;-50.764;2022-12-18T03:57:07;14.20;;;2.10;;
65599;SDS011;52272;-29.642;-50.764;2022-12-18T03:59:43;15.00;;;3.08;;
65599;SDS011;52272;-29.642;-50.764;2022-12-18T04:02:17;18.23;;;2.50;;
65599;SDS011;52272;-29.642;-50.764;2022-12-18T04:04:50;10.88;;;2.45;;
65599;SDS011;52272;-29.642;-50.764;2022-12-18T04:07:25;14.25;;;2.10;;
65599;SDS011;52272;-29.642;-50.764;2022-12-18T04:09:58;12.13;;;2.20;;
65599;SDS011;52272;-29.642;-50.764;2022-12-18T04:12:31;13.75;;;2.50;;
65599;SDS011;52272;-29.642;-50.764;2022-12-18T04:17:30;14.70;;;2.47;;
65599;SDS011;52272;-29.642;-50.764;2022-12-18T04:20:01;11.57;;;2.70;;
65599;SDS011;52272;-29.642;-50.764;2022-12-18T04:25:01;19.67;;;2.40;;
65599;SDS011;52272;-29.642;-50.764;2022-12-18T04:27:38;11.50;;;2.30;;
65599;SDS011;52272;-29.642;-50.764;2022-12-18T04:30:08;15.02;;;2.25;;
65599;SDS011;52272;-29.642;-50.764;2022-12-18T04:32:40;19.98;;;2.67;;
65599;SDS011;52272;-29.642;-50.764;2022-12-18T04:35:17;11.50;;;1.73;;
65599;SDS011;52272;-29.642;-50.764;2022-12-18T04:37:47;14.45;;;2.40;;
65599;SDS011;52272;-29.642;-50.764;2022-12-18T04:40:18;12.18;;;2.33;;
65599;SDS011;52272;-29.642;-50.764;2022-12-18T04:42:48;13.43;;;2.38;;
65599;SDS011;52272;-29.642;-50.764;2022-12-18T04:45:18;16.25;;;3.08;;
65599;SDS011;52272;-29.642;-50.764;2022-12-18T04:47:49;15.15;;;2.83;;
65599;SDS011;52272;-29.642;-50.764;2022-12-18T04:50:19;12.07;;;2.00;;
65599;SDS011;52272;-29.642;-50.764;2022-12-18T04:52:49;12.65;;;2.15;;
65599;SDS011;52272;-29.642;-50.764;2022-12-18T04:55:19;16.30;;;3.05;;
65599;SDS011;52272;-29.642;-50.764;2022-12-18T04:57:50;17.75;;;2.53;;
65599;SDS011;52272;-29.642;-50.764;2022-12-18T05:00:21;15.43;;;2.40;;
65599;SDS011;52272;-29.642;-50.764;2022-12-18T05:02:51;12.68;;;2.22;;
65599;SDS011;52272;-29.642;-50.764;2022-12-18T05:05:22;20.23;;;2.83;;
65599;SDS011;52272;-29.642;-50.764;2022-12-18T05:07:53;13.35;;;2.15;;
65599;SDS011;52272;-29.642;-50.764;2022-12-18T05:10:23;16.30;;;2.88;;
65599;SDS011;52272;-29.642;-50.764;2022-12-18T05:12:53;10.65;;;1.92;;
65599;SDS011;52272;-29.642;-50.764;2022-12-18T05:15:31;9.88;;;2.08;;
65599;SDS011;52272;-29.642;-50.764;2022-12-18T05:18:02;18.10;;;2.50;;
65599;SDS011;52272;-29.642;-50.764;2022-12-18T05:20:33;10.82;;;2.08;;
65599;SDS011;52272;-29.642;-50.764;2022-12-18T05:23:03;13.48;;;2.38;;
65599;SDS011;52272;-29.642;-50.764;2022-12-18T05:25:33;13.45;;;2.35;;
65599;SDS011;52272;-29.642;-50.764;2022-12-18T05:30:32;15.30;;;2.38;;
65599;SDS011;52272;-29.642;-50.764;2022-12-18T05:33:02;17.17;;;2.20;;
65599;SDS011;52272;-29.642;-50.764;2022-12-18T05:35:33;6.85;;;1.70;;
65599;SDS011;52272;-29.642;-50.764;2022-12-18T05:38:03;12.23;;;2.10;;
65599;SDS011;52272;-29.642;-50.764;2022-12-18T05:40:34;15.75;;;2.67;;
65599;SDS011;52272;-29.642;-50.764;2022-12-18T05:43:05;9.63;;;2.25;;
65599;SDS011;52272;-29.642;-50.764;2022-12-18T05:45:38;12.85;;;2.70;;
65599;SDS011;52272;-29.642;-50.764;2022-12-18T05:48:09;13.80;;;2.40;;
65599;SDS011;52272;-29.642;-50.764;2022-12-18T05:50:40;11.80;;;2.50;;
65599;SDS011;52272;-29.642;-50.764;2022-12-18T05:53:15;13.80;;;2.15;;
65599;SDS011;52272;-29.642;-50.764;2022-12-18T05:55:48;14.48;;;2.20;;
65599;SDS011;52272;-29.642;-50.764;2022-12-18T05:58:18;11.65;;;2.40;;
65599;SDS011;52272;-29.642;-50.764;2022-12-18T06:00:48;14.13;;;2.60;;
65599;SDS011;52272;-29.642;-50.764;2022-12-18T06:03:18;20.80;;;2.45;;
65599;SDS011;52272;-29.642;-50.764;2022-12-18T06:05:49;11.80;;;2.40;;
65599;SDS011;52272;-29.642;-50.764;2022-12-18T06:08:19;11.80;;;2.33;;
65599;SDS011;52272;-29.642;-50.764;2022-12-18T06:13:21;9.10;;;2.20;;
65599;SDS011;52272;-29.642;-50.764;2022-12-18T06:15:52;12.65;;;2.75;;
65599;SDS011;52272;-29.642;-50.764;2022-12-18T06:18:22;13.88;;;2.40;;
65599;SDS011;52272;-29.642;-50.764;2022-12-18T06:20:56;10.48;;;2.22;;
65599;SDS011;52272;-29.642;-50.764;2022-12-18T06:23:27;12.38;;;2.55;;
65599;SDS011;52272;-29.642;-50.764;2022-12-18T06:25:58;11.00;;;1.95;;
65599;SDS011;52272;-29.642;-50.764;2022-12-18T06:28:28;9.52;;;2.10;;
65599;SDS011;52272;-29.642;-50.764;2022-12-18T06:30:58;10.68;;;2.50;;
65599;SDS011;52272;-29.642;-50.764;2022-12-18T06:33:28;11.20;;;2.60;;
65599;SDS011;52272;-29.642;-50.764;2022-12-18T06:36:03;6.78;;;2.35;;
65599;SDS011;52272;-29.642;-50.764;2022-12-18T06:38:36;12.73;;;2.20;;
65599;SDS011;52272;-29.642;-50.764;2022-12-18T06:41:08;14.27;;;2.17;;
65599;SDS011;52272;-29.642;-50.764;2022-12-18T06:43:39;8.82;;;2.13;;
65599;SDS011;52272;-29.642;-50.764;2022-12-18T06:46:10;15.93;;;2.22;;
65599;SDS011;52272;-29.642;-50.764;2022-12-18T06:48:42;17.80;;;2.53;;
65599;SDS011;52272;-29.642;-50.764;2022-12-18T06:51:12;7.85;;;1.75;;
65599;SDS011;52272;-29.642;-50.764;2022-12-18T06:53:49;8.40;;;2.13;;
65599;SDS011;52272;-29.642;-50.764;2022-12-18T06:56:19;14.02;;;2.10;;
65599;SDS011;52272;-29.642;-50.764;2022-12-18T06:58:50;12.93;;;2.35;;
65599;SDS011;52272;-29.642;-50.764;2022-12-18T07:01:20;13.98;;;2.50;;
65599;SDS011;52272;-29.642;-50.764;2022-12-18T07:03:52;8.65;;;1.65;;
65599;SDS011;52272;-29.642;-50.764;2022-12-18T07:06:24;11.60;;;2.67;;
65599;SDS011;52272;-29.642;-50.764;2022-12-18T07:08:55;6.53;;;1.90;;
65599;SDS011;52272;-29.642;-50.764;2022-12-18T07:11:25;10.45;;;2.28;;
65599;SDS011;52272;-29.642;-50.764;2022-12-18T07:13:56;10.25;;;1.63;;
65599;SDS011;52272;-29.642;-50.764;2022-12-18T07:16:26;14.52;;;2.03;;
65599;SDS011;52272;-29.642;-50.764;2022-12-18T07:19:00;13.15;;;2.30;;
65599;SDS011;52272;-29.642;-50.764;2022-12-18T07:21:30;7.20;;;2.45;;
65599;SDS011;52272;-29.642;-50.764;2022-12-18T07:24:01;9.32;;;1.98;;
65599;SDS011;52272;-29.642;-50.764;2022-12-18T07:26:31;8.80;;;1.80;;
65599;SDS011;52272;-29.642;-50.764;2022-12-18T07:29:02;12.73;;;1.90;;
65599;SDS011;52272;-29.642;-50.764;2022-12-18T07:31:32;6.75;;;1.95;;
65599;SDS011;52272;-29.642;-50.764;2022-12-18T07:34:03;5.57;;;1.67;;
65599;SDS011;52272;-29.642;-50.764;2022-12-18T07:36:33;10.90;;;2.40;;
65599;SDS011;52272;-29.642;-50.764;2022-12-18T07:39:03;9.93;;;2.05;;
65599;SDS011;52272;-29.642;-50.764;2022-12-18T07:44:09;11.40;;;1.75;;
65599;SDS011;52272;-29.642;-50.764;2022-12-18T07:46:40;12.13;;;2.15;;
65599;SDS011;52272;-29.642;-50.764;2022-12-18T07:51:39;8.15;;;1.80;;
65599;SDS011;52272;-29.642;-50.764;2022-12-18T07:56:39;9.88;;;2.10;;
65599;SDS011;52272;-29.642;-50.764;2022-12-18T07:59:10;9.48;;;2.40;;
65599;SDS011;52272;-29.642;-50.764;2022-12-18T08:01:40;15.00;;;2.25;;
65599;SDS011;52272;-29.642;-50.764;2022-12-18T08:04:11;11.93;;;2.95;;
65599;SDS011;52272;-29.642;-50.764;2022-12-18T08:06:41;7.72;;;1.83;;
65599;SDS011;52272;-29.642;-50.764;2022-12-18T08:09:15;5.18;;;1.60;;
65599;SDS011;52272;-29.642;-50.764;2022-12-18T08:14:15;11.65;;;2.13;;
65599;SDS011;52272;-29.642;-50.764;2022-12-18T08:16:45;11.38;;;2.15;;
65599;SDS011;52272;-29.642;-50.764;2022-12-18T08:19:15;12.85;;;2.63;;
65599;SDS011;52272;-29.642;-50.764;2022-12-18T08:24:15;9.35;;;2.30;;
65599;SDS011;52272;-29.642;-50.764;2022-12-18T08:26:45;8.57;;;1.83;;
65599;SDS011;52272;-29.642;-50.764;2022-12-18T08:29:35;14.30;;;2.08;;
65599;SDS011;52272;-29.642;-50.764;2022-12-18T08:32:06;11.50;;;1.77;;
65599;SDS011;52272;-29.642;-50.764;2022-12-18T08:34:37;12.02;;;2.85;;
65599;SDS011;52272;-29.642;-50.764;2022-12-18T08:37:07;8.07;;;1.90;;
65599;SDS011;52272;-29.642;-50.764;2022-12-18T08:39:37;8.07;;;2.00;;
65599;SDS011;52272;-29.642;-50.764;2022-12-18T08:42:07;10.57;;;1.75;;
65599;SDS011;52272;-29.642;-50.764;2022-12-18T08:44:56;10.02;;;2.40;;
65599;SDS011;52272;-29.642;-50.764;2022-12-18T08:47:29;7.78;;;1.90;;
65599;SDS011;52272;-29.642;-50.764;2022-12-18T08:49:59;10.32;;;1.75;;
65599;SDS011;52272;-29.642;-50.764;2022-12-18T08:52:31;9.50;;;1.98;;
65599;SDS011;52272;-29.642;-50.764;2022-12-18T08:55:02;4.57;;;1.40;;
65599;SDS011;52272;-29.642;-50.764;2022-12-18T08:57:33;10.85;;;2.10;;
65599;SDS011;52272;-29.642;-50.764;2022-12-18T09:00:03;6.45;;;1.83;;
65599;SDS011;52272;-29.642;-50.764;2022-12-18T09:02:34;9.70;;;1.88;;
65599;SDS011;52272;-29.642;-50.764;2022-12-18T09:05:05;14.50;;;1.80;;
65599;SDS011;52272;-29.642;-50.764;2022-12-18T09:07:36;6.78;;;2.00;;
65599;SDS011;52272;-29.642;-50.764;2022-12-18T09:10:06;13.30;;;2.13;;
65599;SDS011;52272;-29.642;-50.764;2022-12-18T09:12:36;6.32;;;1.45;;
65599;SDS011;52272;-29.642;-50.764;2022-12-18T09:15:07;8.57;;;1.50;;
65599;SDS011;52272;-29.642;-50.764;2022-12-18T09:17:38;10.35;;;1.95;;
65599;SDS011;52272;-29.642;-50.764;2022-12-18T09:20:09;7.60;;;1.58;;
65599;SDS011;52272;-29.642;-50.764;2022-12-18T09:22:39;6.75;;;1.58;;
65599;SDS011;52272;-29.642;-50.764;2022-12-18T09:25:10;7.07;;;1.63;;
65599;SDS011;52272;-29.642;-50.764;2022-12-18T09:27:40;5.55;;;1.38;;
65599;SDS011;52272;-29.642;-50.764;2022-12-18T09:30:10;9.43;;;2.15;;
65599;SDS011;52272;-29.642;-50.764;2022-12-18T09:32:40;5.25;;;1.50;;
65599;SDS011;52272;-29.642;-50.764;2022-12-18T09:35:11;7.15;;;1.73;;
65599;SDS011;52272;-29.642;-50.764;2022-12-18T09:37:41;3.50;;;1.20;;
65599;SDS011;52272;-29.642;-50.764;2022-12-18T09:40:16;4.88;;;1.25;;
65599;SDS011;52272;-29.642;-50.764;2022-12-18T09:42:57;10.27;;;2.33;;
65599;SDS011;52272;-29.642;-50.764;2022-12-18T09:45:34;11.85;;;1.85;;
65599;SDS011;52272;-29.642;-50.764;2022-12-18T09:48:18;9.07;;;1.52;;
65599;SDS011;52272;-29.642;-50.764;2022-12-18T09:51:13;8.20;;;1.50;;
65599;SDS011;52272;-29.642;-50.764;2022-12-18T09:56:30;9.07;;;1.45;;
65599;SDS011;52272;-29.642;-50.764;2022-12-18T09:59:04;6.93;;;1.50;;
65599;SDS011;52272;-29.642;-50.764;2022-12-18T10:01:35;7.60;;;1.85;;
65599;SDS011;52272;-29.642;-50.764;2022-12-18T10:04:11;6.72;;;1.23;;
65599;SDS011;52272;-29.642;-50.764;2022-12-18T10:15:34;6.55;;;1.48;;
65599;SDS011;52272;-29.642;-50.764;2022-12-18T10:21:30;5.60;;;1.25;;
65599;SDS011;52272;-29.642;-50.764;2022-12-18T10:27:10;4.75;;;1.45;;
65599;SDS011;52272;-29.642;-50.764;2022-12-18T10:29:43;7.70;;;1.08;;
65599;SDS011;52272;-29.642;-50.764;2022-12-18T10:32:16;4.53;;;1.20;;
65599;SDS011;52272;-29.642;-50.764;2022-12-18T10:34:55;6.72;;;1.27;;
65599;SDS011;52272;-29.642;-50.764;2022-12-18T10:37:29;7.15;;;1.60;;
65599;SDS011;52272;-29.642;-50.764;2022-12-18T10:40:10;4.88;;;1.33;;
65599;SDS011;52272;-29.642;-50.764;2022-12-18T10:45:42;8.07;;;1.80;;
65599;SDS011;52272;-29.642;-50.764;2022-12-18T10:48:35;6.22;;;2.00;;
65599;SDS011;52272;-29.642;-50.764;2022-12-18T10:51:20;6.20;;;1.83;;
65599;SDS011;52272;-29.642;-50.764;2022-12-18T10:54:06;8.73;;;2.08;;
65599;SDS011;52272;-29.642;-50.764;2022-12-18T10:56:47;6.70;;;2.20;;
65599;SDS011;52272;-29.642;-50.764;2022-12-18T11:02:34;6.65;;;1.40;;
65599;SDS011;52272;-29.642;-50.764;2022-12-18T11:08:10;7.43;;;1.42;;
65599;SDS011;52272;-29.642;-50.764;2022-12-18T11:10:52;10.32;;;1.50;;
65599;SDS011;52272;-29.642;-50.764;2022-12-18T11:13:23;7.60;;;1.90;;
65599;SDS011;52272;-29.642;-50.764;2022-12-18T11:15:55;6.82;;;1.45;;
65599;SDS011;52272;-29.642;-50.764;2022-12-18T11:18:28;11.18;;;2.05;;
65599;SDS011;52272;-29.642;-50.764;2022-12-18T11:21:06;7.45;;;1.58;;
65599;SDS011;52272;-29.642;-50.764;2022-12-18T11:23:51;7.32;;;2.03;;
65599;SDS011;52272;-29.642;-50.764;2022-12-18T11:26:22;9.05;;;1.67;;
65599;SDS011;52272;-29.642;-50.764;2022-12-18T11:29:09;12.88;;;2.08;;
65599;SDS011;52272;-29.642;-50.764;2022-12-18T11:31:47;10.57;;;2.67;;
65599;SDS011;52272;-29.642;-50.764;2022-12-18T11:34:27;5.45;;;2.00;;
65599;SDS011;52272;-29.642;-50.764;2022-12-18T11:37:00;8.02;;;2.22;;
65599;SDS011;52272;-29.642;-50.764;2022-12-18T11:39:37;9.88;;;2.10;;
65599;SDS011;52272;-29.642;-50.764;2022-12-18T11:50:20;11.00;;;3.25;;
65599;SDS011;52272;-29.642;-50.764;2022-12-18T11:52:54;12.52;;;3.38;;
65599;SDS011;52272;-29.642;-50.764;2022-12-18T12:09:45;5.18;;;1.80;;
65599;SDS011;52272;-29.642;-50.764;2022-12-18T12:13:07;7.53;;;1.80;;
65599;SDS011;52272;-29.642;-50.764;2022-12-18T12:18:53;4.82;;;1.92;;
65599;SDS011;52272;-29.642;-50.764;2022-12-18T12:21:41;8.93;;;2.05;;
65599;SDS011;52272;-29.642;-50.764;2022-12-18T12:32:42;7.13;;;2.10;;
65599;SDS011;52272;-29.642;-50.764;2022-12-18T12:35:24;8.80;;;1.83;;
65599;SDS011;52272;-29.642;-50.764;2022-12-18T12:38:11;11.65;;;2.10;;
65599;SDS011;52272;-29.642;-50.764;2022-12-18T12:40:59;4.38;;;1.48;;
65599;SDS011;52272;-29.642;-50.764;2022-12-18T12:43:58;9.20;;;2.45;;
65599;SDS011;52272;-29.642;-50.764;2022-12-18T12:46:35;7.40;;;2.10;;
65599;SDS011;52272;-29.642;-50.764;2022-12-18T12:49:11;8.77;;;1.75;;
65599;SDS011;52272;-29.642;-50.764;2022-12-18T12:51:50;7.47;;;2.10;;
65599;SDS011;52272;-29.642;-50.764;2022-12-18T12:54:42;6.38;;;1.67;;
65599;SDS011;52272;-29.642;-50.764;2022-12-18T12:57:21;7.10;;;1.70;;
65599;SDS011;52272;-29.642;-50.764;2022-12-18T13:00:01;7.20;;;1.77;;
65599;SDS011;52272;-29.642;-50.764;2022-12-18T13:02:41;8.18;;;1.88;;
65599;SDS011;52272;-29.642;-50.764;2022-12-18T13:08:08;3.38;;;1.40;;
65599;SDS011;52272;-29.642;-50.764;2022-12-18T13:10:40;6.40;;;1.85;;
65599;SDS011;52272;-29.642;-50.764;2022-12-18T13:13:15;2.85;;;1.33;;
65599;SDS011;52272;-29.642;-50.764;2022-12-18T13:16:04;5.13;;;1.30;;
65599;SDS011;52272;-29.642;-50.764;2022-12-18T13:18:38;4.15;;;1.40;;
65599;SDS011;52272;-29.642;-50.764;2022-12-18T13:21:28;4.22;;;1.40;;
65599;SDS011;52272;-29.642;-50.764;2022-12-18T13:24:20;2.90;;;1.50;;
65599;SDS011;52272;-29.642;-50.764;2022-12-18T13:26:54;3.25;;;1.48;;
65599;SDS011;52272;-29.642;-50.764;2022-12-18T13:32:25;3.13;;;1.40;;
65599;SDS011;52272;-29.642;-50.764;2022-12-18T13:37:53;5.05;;;1.38;;
65599;SDS011;52272;-29.642;-50.764;2022-12-18T13:49:16;2.10;;;1.27;;
65599;SDS011;52272;-29.642;-50.764;2022-12-18T13:51:58;5.07;;;2.00;;
65599;SDS011;52272;-29.642;-50.764;2022-12-18T14:02:58;5.00;;;1.60;;
65599;SDS011;52272;-29.642;-50.764;2022-12-18T14:05:33;5.47;;;1.70;;
65599;SDS011;52272;-29.642;-50.764;2022-12-18T14:08:08;5.45;;;1.67;;
65599;SDS011;52272;-29.642;-50.764;2022-12-18T14:10:46;3.35;;;1.80;;
65599;SDS011;52272;-29.642;-50.764;2022-12-18T14:13:23;5.93;;;2.33;;
65599;SDS011;52272;-29.642;-50.764;2022-12-18T14:16:03;4.18;;;2.20;;
65599;SDS011;52272;-29.642;-50.764;2022-12-18T14:18:50;4.28;;;1.60;;
65599;SDS011;52272;-29.642;-50.764;2022-12-18T14:21:35;3.00;;;1.70;;
65599;SDS011;52272;-29.642;-50.764;2022-12-18T14:26:47;3.00;;;1.80;;
65599;SDS011;52272;-29.642;-50.764;2022-12-18T14:32:12;5.47;;;2.83;;
65599;SDS011;52272;-29.642;-50.764;2022-12-18T14:34:51;5.43;;;2.60;;
65599;SDS011;52272;-29.642;-50.764;2022-12-18T14:37:26;5.57;;;2.63;;
65599;SDS011;52272;-29.642;-50.764;2022-12-18T14:39:58;11.85;;;2.88;;
65599;SDS011;52272;-29.642;-50.764;2022-12-18T14:42:37;6.30;;;3.05;;
65599;SDS011;52272;-29.642;-50.764;2022-12-18T14:51:17;4.43;;;2.88;;
65599;SDS011;52272;-29.642;-50.764;2022-12-18T14:56:31;5.95;;;3.10;;
65599;SDS011;52272;-29.642;-50.764;2022-12-18T14:59:04;5.28;;;3.05;;
65599;SDS011;52272;-29.642;-50.764;2022-12-18T15:01:56;3.30;;;2.65;;
65599;SDS011;52272;-29.642;-50.764;2022-12-18T15:04:36;5.68;;;2.65;;
65599;SDS011;52272;-29.642;-50.764;2022-12-18T15:10:08;4.47;;;2.38;;
65599;SDS011;52272;-29.642;-50.764;2022-12-18T15:12:44;4.15;;;2.53;;
65599;SDS011;52272;-29.642;-50.764;2022-12-18T15:23:22;1.95;;;1.85;;
65599;SDS011;52272;-29.642;-50.764;2022-12-18T15:25:58;3.70;;;2.58;;
65599;SDS011;52272;-29.642;-50.764;2022-12-18T15:33:47;2.30;;;2.00;;
65599;SDS011;52272;-29.642;-50.764;2022-12-18T15:36:32;3.55;;;2.45;;
65599;SDS011;52272;-29.642;-50.764;2022-12-18T15:39:05;2.25;;;1.70;;
65599;SDS011;52272;-29.642;-50.764;2022-12-18T15:41:35;3.13;;;2.20;;
65599;SDS011;52272;-29.642;-50.764;2022-12-18T15:44:22;3.25;;;1.80;;
65599;SDS011;52272;-29.642;-50.764;2022-12-18T15:46:53;3.42;;;2.22;;
65599;SDS011;52272;-29.642;-50.764;2022-12-18T15:49:25;3.80;;;2.50;;
65599;SDS011;52272;-29.642;-50.764;2022-12-18T15:51:56;3.65;;;2.10;;
65599;SDS011;52272;-29.642;-50.764;2022-12-18T15:54:30;3.80;;;2.30;;
65599;SDS011;52272;-29.642;-50.764;2022-12-18T15:57:18;4.07;;;2.30;;
65599;SDS011;52272;-29.642;-50.764;2022-12-18T15:59:55;2.92;;;2.00;;
65599;SDS011;52272;-29.642;-50.764;2022-12-18T16:02:26;3.92;;;1.83;;
65599;SDS011;52272;-29.642;-50.764;2022-12-18T16:04:58;3.45;;;2.22;;
65599;SDS011;52272;-29.642;-50.764;2022-12-18T16:07:28;4.65;;;1.88;;
65599;SDS011;52272;-29.642;-50.764;2022-12-18T16:09:58;5.40;;;2.45;;
65599;SDS011;52272;-29.642;-50.764;2022-12-18T16:12:29;3.38;;;1.95;;
65599;SDS011;52272;-29.642;-50.764;2022-12-18T16:15:01;3.22;;;1.80;;
65599;SDS011;52272;-29.642;-50.764;2022-12-18T16:17:32;4.07;;;1.98;;
65599;SDS011;52272;-29.642;-50.764;2022-12-18T16:20:03;3.10;;;1.70;;
65599;SDS011;52272;-29.642;-50.764;2022-12-18T16:22:33;5.63;;;2.20;;
65599;SDS011;52272;-29.642;-50.764;2022-12-18T16:25:04;7.10;;;2.00;;
65599;SDS011;52272;-29.642;-50.764;2022-12-18T16:27:35;4.88;;;2.03;;
65599;SDS011;52272;-29.642;-50.764;2022-12-18T16:30:06;6.15;;;2.08;;
65599;SDS011;52272;-29.642;-50.764;2022-12-18T16:32:42;4.57;;;2.00;;
65599;SDS011;52272;-29.642;-50.764;2022-12-18T16:35:13;3.78;;;1.83;;
65599;SDS011;52272;-29.642;-50.764;2022-12-18T16:37:45;3.33;;;1.80;;
65599;SDS011;52272;-29.642;-50.764;2022-12-18T16:40:16;6.38;;;1.90;;
65599;SDS011;52272;-29.642;-50.764;2022-12-18T16:42:48;3.78;;;1.83;;
65599;SDS011;52272;-29.642;-50.764;2022-12-18T16:45:18;4.43;;;1.63;;
65599;SDS011;52272;-29.642;-50.764;2022-12-18T16:47:49;4.25;;;1.65;;
65599;SDS011;52272;-29.642;-50.764;2022-12-18T16:50:19;3.35;;;1.52;;
65599;SDS011;52272;-29.642;-50.764;2022-12-18T16:52:49;3.83;;;1.60;;
65599;SDS011;52272;-29.642;-50.764;2022-12-18T16:55:19;3.42;;;1.63;;
65599;SDS011;52272;-29.642;-50.764;2022-12-18T16:57:49;3.60;;;1.48;;
65599;SDS011;52272;-29.642;-50.764;2022-12-18T17:00:20;4.82;;;1.98;;
65599;SDS011;52272;-29.642;-50.764;2022-12-18T17:02:50;2.40;;;1.35;;
65599;SDS011;52272;-29.642;-50.764;2022-12-18T17:05:21;5.38;;;1.73;;
65599;SDS011;52272;-29.642;-50.764;2022-12-18T17:07:50;4.28;;;1.60;;
65599;SDS011;52272;-29.642;-50.764;2022-12-18T17:10:21;3.95;;;1.55;;
65599;SDS011;52272;-29.642;-50.764;2022-12-18T17:12:51;4.57;;;1.55;;
65599;SDS011;52272;-29.642;-50.764;2022-12-18T17:15:22;4.00;;;1.40;;
65599;SDS011;52272;-29.642;-50.764;2022-12-18T17:17:52;4.47;;;1.45;;
65599;SDS011;52272;-29.642;-50.764;2022-12-18T17:20:23;3.83;;;1.50;;
65599;SDS011;52272;-29.642;-50.764;2022-12-18T17:22:53;6.20;;;1.95;;
65599;SDS011;52272;-29.642;-50.764;2022-12-18T17:25:25;3.10;;;1.63;;
65599;SDS011;52272;-29.642;-50.764;2022-12-18T17:27:55;4.50;;;1.83;;
65599;SDS011;52272;-29.642;-50.764;2022-12-18T17:32:54;9.40;;;2.75;;
65599;SDS011;52272;-29.642;-50.764;2022-12-18T17:35:24;7.50;;;2.30;;
65599;SDS011;52272;-29.642;-50.764;2022-12-18T17:37:55;8.07;;;2.90;;